Greeneville, TN

10:41 PM EDT on August 04, 2015 (GMT -0400)
Old Tusculum Rd | | Change Station
CLOSE
Current Station
Personal Weather Station
Location: Greeneville, TN
Elevation: 1644 ft
Nearby Weather Stations

Elev 1644 ft 36.18 °N, 82.78 °W | Updated 10 seconds ago

Mostly Cloudy
Mostly Cloudy
73.9 °F
Feels Like 75 °F
N
0.0
Wind Variable Wind from NNE
Gusts 0.0 mph

Today
High -- | Low -- °F
--% Chance of Precip.
Yesterday
High -- | Low -- °F
Precip. -- in
6:40 AM 8:34 PM
Waning Gibbous, 72% visible
Pressure 30.02 in
Visibility 8.0 miles
Clouds Few 5000 ft
Scattered Clouds 12000 ft
Mostly Cloudy 18000 ft
Overcast 25000 ft
Heat Index 75 °F
Dew Point 65 °F
Humidity 74%
Rainfall 0.00 in
Snow Depth Not available.
UV 0 out of 12
Pollen 5.40 out of 12
Air Quality Not available.
Flu Activity Not available.
METAR KTRI 050153Z 00000KT 8SM FEW050 SCT120 BKN180 OVC250 21/19 A3009 RMK AO2 SLP166 T02060194

More Conditions Fewer Conditions

Pressure 30.02 in
Visibility 8.0 miles
Clouds Few 5000 ft
Scattered Clouds 12000 ft
Mostly Cloudy 18000 ft
Overcast 25000 ft
Heat Index 75 °F
Dew Point 65 °F
Humidity 74%
Rainfall 0.00 in
Snow Depth Not available.
UV 0 out of 12
Pollen 5.40 out of 12
Air Quality Not available.
Flu Activity Not available.
METAR KTRI 050153Z 00000KT 8SM FEW050 SCT120 BKN180 OVC250 21/19 A3009 RMK AO2 SLP166 T02060194

More Conditions Fewer Conditions

10-Day Weather Forecast

×

Almanac

Astronomy

Aug. 04, 2015 Rise Set
Actual Time
Civil Twilight
Nautical Twilight
Astronomical Twilight
Moon
Length of Visible Light
Length of Day
Tomorrow will be .
, % of the Moon is Illuminated

Today's Extremes

State Highs State Lows

Community

WunderPhotos

Upload Photos

1,844,089 photos uploaded!

WunderBlogs® & News

Nearby

Air Quality

  Air Quality AQ Index Pollutant
Not available.

Snow Depth

Station Depth Elevation

Earthquake Activity

City Distance Mag. Time & Date
Minimum magnitude displayed is 2.5.

Coastal Water Temperatures

Place Temperature

Stations

Nearby Weather Stations

Station Location Temp. Windchill Dew Point Humidity Wind Precip. Elev Updated Type